createdAt,value
2024-03-04T00:00:25.900Z,7.38
2024-03-04T00:06:06.440Z,7.22
2024-03-04T00:12:57.644Z,7.33
2024-03-04T00:16:42.363Z,7.44
2024-03-04T00:19:20.622Z,7.48
2024-03-04T00:21:48.729Z,7.48
2024-03-04T00:24:17.186Z,7.45
2024-03-04T00:26:44.880Z,7.44
2024-03-04T00:29:12.653Z,7.44
2024-03-04T00:31:40.834Z,7.44
2024-03-04T00:34:08.683Z,7.48
2024-03-04T00:36:36.353Z,7.52
2024-03-04T00:39:04.387Z,7.56
2024-03-04T00:41:32.556Z,7.58
2024-03-04T00:44:00.456Z,7.56
2024-03-04T00:46:28.387Z,7.51
2024-03-04T00:48:56.540Z,7.44
2024-03-04T00:51:24.533Z,7.31
2024-03-04T00:53:52.239Z,7.20
2024-03-04T00:56:20.413Z,7.06
2024-03-04T00:58:49.551Z,6.94
2024-03-04T01:01:17.625Z,6.84
2024-03-04T01:03:45.644Z,6.75
2024-03-04T01:06:13.371Z,6.66
2024-03-04T01:08:41.093Z,6.59
2024-03-04T01:11:09.008Z,6.52
2024-03-04T01:13:37.305Z,6.46
2024-03-04T01:16:06.466Z,6.41
2024-03-04T01:18:35.904Z,6.38
2024-03-04T01:21:05.503Z,6.36
2024-03-04T01:23:33.422Z,6.37
2024-03-04T01:26:01.957Z,6.42
2024-03-04T01:28:29.967Z,6.47
2024-03-04T01:30:57.846Z,6.49
2024-03-04T01:33:25.789Z,6.49
2024-03-04T01:35:53.516Z,6.48
2024-03-04T01:38:21.345Z,6.47
2024-03-04T01:40:49.218Z,6.48
2024-03-04T01:43:18.815Z,6.50
2024-03-04T01:45:46.600Z,6.51
2024-03-04T01:48:14.425Z,6.48
2024-03-04T01:50:45.051Z,6.43
2024-03-04T01:53:13.518Z,6.42
2024-03-04T01:55:44.497Z,6.42
2024-03-04T01:58:18.419Z,6.42
2024-03-04T02:00:49.406Z,6.42
2024-03-04T02:03:18.406Z,6.38
2024-03-04T02:05:47.086Z,6.38
2024-03-04T02:08:17.101Z,6.34
2024-03-04T02:10:45.206Z,6.30
2024-03-04T02:13:13.397Z,6.30
2024-03-04T02:15:42.132Z,6.31
2024-03-04T02:18:10.679Z,6.31
2024-03-04T02:20:39.714Z,6.28
2024-03-04T02:23:09.503Z,6.29
2024-03-04T02:25:37.481Z,6.27
2024-03-04T02:28:06.646Z,6.29
2024-03-04T02:30:35.061Z,6.32
2024-03-04T02:33:05.073Z,6.36
2024-03-04T02:35:33.891Z,6.37
2024-03-04T02:38:02.699Z,6.37
2024-03-04T02:40:30.452Z,6.37
2024-03-04T02:42:58.273Z,6.37
2024-03-04T02:45:26.209Z,6.39
2024-03-04T02:47:54.524Z,6.40
2024-03-04T02:50:22.632Z,6.41
2024-03-04T02:52:51.795Z,6.40
2024-03-04T02:55:19.634Z,6.40
2024-03-04T02:57:48.090Z,6.41
2024-03-04T03:00:18.051Z,6.43
2024-03-04T03:02:46.089Z,6.44
2024-03-04T03:05:14.025Z,6.45
2024-03-04T03:07:41.780Z,6.43
2024-03-04T03:10:11.524Z,6.43
2024-03-04T03:12:39.317Z,6.43
2024-03-04T03:15:09.091Z,6.44
2024-03-04T03:17:37.248Z,6.44
2024-03-04T03:20:19.811Z,6.43
2024-03-04T03:22:49.100Z,6.41
2024-03-04T03:25:17.051Z,6.41
2024-03-04T03:27:44.905Z,6.42
2024-03-04T03:30:15.056Z,6.42
2024-03-04T03:32:43.724Z,6.38
2024-03-04T03:35:11.520Z,6.38
2024-03-04T03:37:39.347Z,6.38
2024-03-04T03:40:11.299Z,6.38
2024-03-04T03:42:39.065Z,6.38
2024-03-04T03:45:08.900Z,6.35
2024-03-04T03:47:36.606Z,6.32
2024-03-04T03:50:06.283Z,6.28
2024-03-04T03:52:35.526Z,6.27
2024-03-04T03:55:04.469Z,6.27
2024-03-04T03:57:41.589Z,6.27
2024-03-04T04:00:20.277Z,6.23
2024-03-04T04:02:48.058Z,6.20
2024-03-04T04:05:15.958Z,6.18
2024-03-04T04:07:43.923Z,6.18
2024-03-04T04:10:11.725Z,6.15
2024-03-04T04:12:39.425Z,6.15
2024-03-04T04:15:08.391Z,6.12
2024-03-04T04:17:36.113Z,6.11
2024-03-04T04:20:07.415Z,6.11
2024-03-04T04:22:35.108Z,6.10
2024-03-04T04:25:03.107Z,6.07
2024-03-04T04:27:30.980Z,6.06
2024-03-04T04:29:59.171Z,6.02
2024-03-04T04:32:27.707Z,6.04
2024-03-04T04:34:55.334Z,6.04
2024-03-04T04:37:23.105Z,6.03
2024-03-04T04:39:51.040Z,6.00
2024-03-04T04:42:19.126Z,5.98
2024-03-04T04:44:47.234Z,5.98
2024-03-04T04:47:14.962Z,5.99
2024-03-04T04:49:42.904Z,5.99
2024-03-04T04:52:10.767Z,5.98
2024-03-04T04:54:38.468Z,5.95
2024-03-04T04:57:06.300Z,5.93
2024-03-04T04:59:33.971Z,5.93
2024-03-04T05:02:01.810Z,5.93
2024-03-04T05:04:43.797Z,5.93
2024-03-04T05:07:17.914Z,5.90
2024-03-04T05:09:45.609Z,5.86
2024-03-04T05:12:13.305Z,5.82
2024-03-04T05:14:41.153Z,5.81
2024-03-04T05:17:11.354Z,5.81
2024-03-04T05:19:39.107Z,5.82
2024-03-04T05:22:08.720Z,5.79
2024-03-04T05:24:36.449Z,5.76
2024-03-04T05:27:04.924Z,5.75
2024-03-04T05:29:32.747Z,5.76
2024-03-04T05:32:00.449Z,5.76
2024-03-04T05:34:28.642Z,5.77
2024-03-04T05:36:56.380Z,5.75
2024-03-04T05:39:24.564Z,5.71
2024-03-04T05:41:52.513Z,5.67
2024-03-04T05:44:20.599Z,5.60
2024-03-04T05:46:51.226Z,5.58
2024-03-04T05:49:19.456Z,5.49
2024-03-04T05:51:47.206Z,5.42
2024-03-04T05:54:14.913Z,5.36
2024-03-04T05:56:43.756Z,5.33
2024-03-04T05:59:11.631Z,5.34
2024-03-04T06:01:39.900Z,5.37
2024-03-04T06:04:08.432Z,5.42
2024-03-04T06:06:36.276Z,5.42
2024-03-04T06:09:05.665Z,5.45
2024-03-04T06:11:33.574Z,5.45
2024-03-04T06:14:01.887Z,5.47
2024-03-04T06:16:29.993Z,5.52
2024-03-04T06:18:57.848Z,5.58
2024-03-04T06:21:25.422Z,5.65
2024-03-04T06:23:53.969Z,5.69
2024-03-04T06:26:21.557Z,5.73
2024-03-04T06:28:49.484Z,5.76
2024-03-04T06:31:17.612Z,5.79
2024-03-04T06:33:52.567Z,5.83
2024-03-04T07:12:58.970Z,6.91
2024-03-04T07:23:14.578Z,7.12
2024-03-04T07:38:34.345Z,7.60
2024-03-04T08:17:54.808Z,8.18
2024-03-04T08:20:58.676Z,8.23
2024-03-04T08:32:15.167Z,8.57
2024-03-04T08:38:49.525Z,8.89
2024-03-04T08:50:07.721Z,9.23
2024-03-04T09:15:46.157Z,9.61
2024-03-04T09:27:22.043Z,9.60
2024-03-04T09:33:55.224Z,9.60
2024-03-04T09:37:46.820Z,9.53
2024-03-04T09:45:27.180Z,9.50
2024-03-04T10:34:25.120Z,8.63
2024-03-04T10:41:08.690Z,8.60
2024-03-04T10:54:37.482Z,8.54
2024-03-04T10:57:45.315Z,8.65
2024-03-04T11:01:22.865Z,8.82
2024-03-04T11:15:04.286Z,9.33
2024-03-04T11:24:58.419Z,9.90
2024-03-04T11:32:34.427Z,10.38
2024-03-04T11:47:36.576Z,11.68
2024-03-04T11:57:57.120Z,12.16
2024-03-04T12:12:12.482Z,12.18
2024-03-04T12:17:06.104Z,12.20
2024-03-04T12:36:29.153Z,11.82
2024-03-04T12:40:06.278Z,11.76
2024-03-04T12:50:08.470Z,11.66
2024-03-04T13:00:46.140Z,11.29
2024-03-04T13:06:42.569Z,11.16
2024-03-04T13:19:36.607Z,11.08
2024-03-04T13:35:46.065Z,10.19
2024-03-04T13:38:19.169Z,10.14
2024-03-04T13:41:14.521Z,10.02
2024-03-04T13:44:42.614Z,9.90
2024-03-04T14:01:01.997Z,9.76
2024-03-04T14:20:17.062Z,9.42
2024-03-04T14:23:01.413Z,9.36
2024-03-04T14:25:44.945Z,9.29
2024-03-04T14:28:42.547Z,9.23
2024-03-04T14:31:19.347Z,9.16
2024-03-04T14:48:34.904Z,8.68
2024-03-04T14:51:10.421Z,8.66
2024-03-04T14:54:04.247Z,8.61
2024-03-04T15:08:00.494Z,8.25
2024-03-04T15:21:05.063Z,8.09
2024-03-04T15:31:20.154Z,7.94
2024-03-04T15:34:35.855Z,7.97
2024-03-04T15:37:42.519Z,7.96
2024-03-04T15:44:22.194Z,7.92
2024-03-04T15:57:34.434Z,7.78
2024-03-04T16:07:38.852Z,7.65
2024-03-04T16:10:53.713Z,7.60
2024-03-04T16:13:36.686Z,7.53
2024-03-04T16:16:28.887Z,7.50
2024-03-04T16:19:19.454Z,7.49
2024-03-04T16:22:24.108Z,7.46
2024-03-04T16:26:00.988Z,7.42
2024-03-04T16:32:27.429Z,7.29
2024-03-04T16:35:32.869Z,7.28
2024-03-04T16:49:01.162Z,7.15
2024-03-04T16:52:16.052Z,7.07
2024-03-04T16:58:45.080Z,7.09
2024-03-04T17:02:00.990Z,7.07
2024-03-04T17:05:07.485Z,7.03
2024-03-04T17:17:28.746Z,7.00
2024-03-04T17:30:09.061Z,6.93
2024-03-04T17:33:08.051Z,6.94
2024-03-04T17:36:31.533Z,6.96
2024-03-04T17:47:37.576Z,6.85
2024-03-04T17:54:06.009Z,6.87
2024-03-04T17:57:05.987Z,6.83
2024-03-04T17:59:52.738Z,6.83
2024-03-04T18:05:51.185Z,6.77
2024-03-04T18:12:20.954Z,6.79
2024-03-04T18:18:42.731Z,6.78
2024-03-04T18:21:53.262Z,6.73
2024-03-04T18:25:01.288Z,6.74
2024-03-04T18:27:59.951Z,6.76
2024-03-04T18:31:22.880Z,6.79
2024-03-04T18:34:12.120Z,6.81
2024-03-04T18:36:54.390Z,6.80
2024-03-04T18:43:26.635Z,6.79
2024-03-04T18:46:23.892Z,6.82
2024-03-04T18:50:04.226Z,6.83
2024-03-04T18:53:20.826Z,6.81
2024-03-04T18:56:29.984Z,6.77
2024-03-04T18:59:35.244Z,6.74
2024-03-04T19:02:46.198Z,6.71
2024-03-04T19:09:26.129Z,6.73
2024-03-04T19:12:38.513Z,6.70
2024-03-04T19:16:01.631Z,6.68
2024-03-04T19:19:32.120Z,6.64
2024-03-04T19:22:41.098Z,6.65
2024-03-04T19:25:59.232Z,6.65
2024-03-04T19:29:03.427Z,6.63
2024-03-04T19:32:21.287Z,6.59
2024-03-04T19:35:24.431Z,6.57
2024-03-04T19:41:16.320Z,6.57
2024-03-04T19:53:31.778Z,6.56
2024-03-04T19:56:19.662Z,6.54
2024-03-04T19:59:25.808Z,6.54
2024-03-04T20:02:45.778Z,6.57
2024-03-04T20:09:19.228Z,6.57
2024-03-04T20:12:03.584Z,6.55
2024-03-04T20:14:39.906Z,6.53
2024-03-04T20:28:01.350Z,6.61
2024-03-04T20:31:08.874Z,6.59
2024-03-04T20:34:05.151Z,6.59
2024-03-04T20:36:52.453Z,6.61
2024-03-04T20:39:32.040Z,6.64
2024-03-04T20:42:15.358Z,6.65
2024-03-04T20:45:09.846Z,6.66
2024-03-04T20:47:45.427Z,6.65
2024-03-04T20:50:24.778Z,6.64
2024-03-04T20:53:13.667Z,6.62
2024-03-04T20:55:55.778Z,6.62
2024-03-04T20:58:46.833Z,6.63
2024-03-04T21:01:43.711Z,6.64
2024-03-04T21:04:39.412Z,6.63
2024-03-04T21:07:16.490Z,6.60
2024-03-04T21:10:15.960Z,6.58
2024-03-04T21:13:09.569Z,6.56
2024-03-04T21:15:53.421Z,6.57
2024-03-04T21:26:35.700Z,6.60
2024-03-04T21:29:03.237Z,6.58
2024-03-04T21:32:29.201Z,6.56
2024-03-04T21:35:33.549Z,6.54
2024-03-04T21:45:38.507Z,6.57
2024-03-04T21:52:12.857Z,6.50
2024-03-04T21:55:19.474Z,6.48
2024-03-04T21:58:41.048Z,6.49
2024-03-04T22:02:05.215Z,6.51
2024-03-04T22:12:10.660Z,6.46
2024-03-04T22:19:03.205Z,6.48
2024-03-04T22:25:33.916Z,6.53
2024-03-04T22:32:10.142Z,6.53
2024-03-04T22:38:56.170Z,6.56
2024-03-04T22:42:12.570Z,6.60
2024-03-04T22:45:26.513Z,6.60
2024-03-04T22:51:14.634Z,6.58
2024-03-04T23:02:08.728Z,6.63
2024-03-04T23:09:33.561Z,6.64
2024-03-04T23:15:47.791Z,6.65
2024-03-04T23:19:03.469Z,6.69
2024-03-04T23:25:41.927Z,6.70
2024-03-04T23:28:53.579Z,6.67
2024-03-04T23:44:16.979Z,6.65
2024-03-04T23:47:35.634Z,6.63
2024-03-04T23:50:54.664Z,6.58
